Time;durP1;ratioP1;P1;durP2;ratioP2;P2;SDS_P1;SDS_P2;PMS_P1;PMS_P2;Temp;Humidity;BMP_temperature;BMP_pressure;BME280_temperature;BME280_humidity;BME280_pressure;Samples;Min_cycle;Max_cycle;Signal;HPM_P1;HPM_P2
2020/12/12 00:02:17;;;;;;;4.82;3.05;;;1.50;99.90;;;;;;5036273;28;20253;-82
2020/12/12 00:04:43;;;;;;;5.40;3.28;;;1.50;99.90;;;;;;5051073;28;20735;-83
2020/12/12 00:07:10;;;;;;;3.33;2.67;;;1.50;99.90;;;;;;5056377;28;20196;-80
2020/12/12 00:09:36;;;;;;;5.03;2.95;;;1.50;99.90;;;;;;5038982;28;20193;-81
2020/12/12 00:12:03;;;;;;;4.03;2.97;;;1.50;99.90;;;;;;5040434;28;20833;-80
2020/12/12 00:14:29;;;;;;;5.03;2.92;;;1.50;99.90;;;;;;5023167;28;20201;-83
2020/12/12 00:16:55;;;;;;;3.50;2.50;;;1.50;99.90;;;;;;5032831;28;20275;-82
2020/12/12 00:19:21;;;;;;;3.60;2.70;;;1.50;99.90;;;;;;5050099;28;20200;-82
2020/12/12 00:21:51;;;;;;;4.43;3.00;;;1.50;99.90;;;;;;5043890;28;20220;-81
2020/12/12 00:24:17;;;;;;;3.95;2.95;;;1.50;99.90;;;;;;5035137;28;20205;-80
2020/12/12 00:26:46;;;;;;;4.47;2.85;;;1.50;99.90;;;;;;5041753;28;20905;-82
2020/12/12 00:29:13;;;;;;;4.05;2.85;;;1.50;99.90;;;;;;5043976;28;20293;-80
2020/12/12 00:31:39;;;;;;;4.32;3.05;;;1.50;99.90;;;;;;5040579;28;20702;-82
2020/12/12 00:34:05;;;;;;;4.13;2.92;;;1.50;99.90;;;;;;5038503;28;20194;-81
2020/12/12 00:36:31;;;;;;;4.65;3.15;;;1.50;99.90;;;;;;5042206;28;20193;-81
2020/12/12 00:38:57;;;;;;;4.50;3.05;;;1.50;99.90;;;;;;5045719;28;20197;-81
2020/12/12 00:41:23;;;;;;;3.97;2.65;;;1.40;99.90;;;;;;5042378;28;20197;-81
2020/12/12 00:43:48;;;;;;;5.53;3.00;;;1.40;99.90;;;;;;5042646;28;20282;-81
2020/12/12 00:46:14;;;;;;;5.07;3.13;;;1.40;99.90;;;;;;5047067;28;20197;-82
2020/12/12 00:48:40;;;;;;;4.22;2.70;;;1.50;99.90;;;;;;5039753;28;20237;-81
2020/12/12 00:51:05;;;;;;;5.28;3.38;;;1.50;99.90;;;;;;5044526;28;20220;-81
2020/12/12 00:53:31;;;;;;;4.60;2.90;;;1.50;99.90;;;;;;5038248;28;20201;-81
2020/12/12 00:55:56;;;;;;;4.32;3.03;;;1.50;99.90;;;;;;5044340;28;20899;-81
2020/12/12 00:58:22;;;;;;;5.28;3.53;;;1.50;99.90;;;;;;5044642;28;20201;-81
2020/12/12 01:00:48;;;;;;;4.80;3.15;;;1.50;99.90;;;;;;5058238;28;20199;-82
2020/12/12 01:03:14;;;;;;;5.03;3.20;;;1.50;99.90;;;;;;5038708;28;20754;-82
2020/12/12 01:05:39;;;;;;;4.70;3.10;;;1.50;99.90;;;;;;5046426;28;20628;-82
2020/12/12 01:08:05;;;;;;;4.50;2.88;;;1.40;99.90;;;;;;5046538;28;20258;-83
2020/12/12 01:10:31;;;;;;;5.63;3.17;;;1.50;99.90;;;;;;5044129;28;20246;-81
2020/12/12 01:12:57;;;;;;;5.20;3.03;;;1.50;99.90;;;;;;5065676;28;20336;-82
2020/12/12 01:15:22;;;;;;;6.13;3.50;;;1.50;99.90;;;;;;5062166;28;20189;-81
2020/12/12 01:17:48;;;;;;;6.43;3.22;;;1.50;99.90;;;;;;5040067;28;20205;-82
2020/12/12 01:20:14;;;;;;;4.82;3.10;;;1.50;99.90;;;;;;5044843;28;20560;-82
2020/12/12 01:22:40;;;;;;;4.43;3.10;;;1.50;99.90;;;;;;5057601;28;20632;-82
2020/12/12 01:25:06;;;;;;;4.60;3.00;;;1.60;99.90;;;;;;5044278;28;20197;-81
2020/12/12 01:27:31;;;;;;;5.07;3.00;;;1.60;99.90;;;;;;5041882;28;20239;-81
2020/12/12 01:29:58;;;;;;;4.82;3.03;;;1.60;99.90;;;;;;5041534;28;20682;-81
2020/12/12 01:32:24;;;;;;;4.68;3.13;;;1.60;99.90;;;;;;5045396;28;20280;-81
2020/12/12 01:34:50;;;;;;;5.28;3.10;;;1.60;99.90;;;;;;5036539;28;20281;-81
2020/12/12 01:37:15;;;;;;;4.97;3.10;;;1.60;99.90;;;;;;5044011;28;20201;-81
2020/12/12 01:39:41;;;;;;;5.75;3.25;;;1.60;99.90;;;;;;5041956;28;20634;-81
2020/12/12 01:42:07;;;;;;;4.60;2.88;;;1.60;99.90;;;;;;5059621;28;20250;-80
2020/12/12 01:44:33;;;;;;;5.70;3.55;;;1.60;99.90;;;;;;5045708;28;20981;-81
2020/12/12 01:47:00;;;;;;;5.30;3.28;;;1.60;99.90;;;;;;5047647;28;20345;-79
2020/12/12 01:49:26;;;;;;;4.68;3.17;;;1.60;99.90;;;;;;5044470;28;20196;-80
2020/12/12 01:51:52;;;;;;;5.70;3.25;;;1.60;99.90;;;;;;5043526;28;20197;-80
2020/12/12 01:54:19;;;;;;;4.93;3.10;;;1.60;99.90;;;;;;5045005;28;20193;-81
2020/12/12 01:56:49;;;;;;;4.97;3.30;;;1.50;99.90;;;;;;5039529;28;20193;-81
2020/12/12 01:59:15;;;;;;;4.63;3.10;;;1.50;99.90;;;;;;5042992;28;20980;-80
2020/12/12 02:01:45;;;;;;;8.23;3.42;;;1.60;99.90;;;;;;5044574;28;20236;-81
2020/12/12 02:04:17;;;;;;;5.63;3.63;;;1.50;99.90;;;;;;5057593;28;20216;-82
2020/12/12 02:06:42;;;;;;;5.32;3.30;;;1.50;99.90;;;;;;5044256;28;20205;-80
2020/12/12 02:09:08;;;;;;;5.28;3.65;;;1.60;99.90;;;;;;5043948;28;20249;-81
2020/12/12 02:11:36;;;;;;;6.15;3.67;;;1.60;99.90;;;;;;5056727;28;20193;-80
2020/12/12 02:14:02;;;;;;;6.32;3.50;;;1.60;99.90;;;;;;5042686;28;20708;-81
2020/12/12 02:16:28;;;;;;;5.90;3.45;;;1.70;99.90;;;;;;5040676;28;20193;-81
2020/12/12 02:18:53;;;;;;;6.50;3.42;;;1.60;99.90;;;;;;5037127;28;20206;-81
2020/12/12 02:21:19;;;;;;;6.75;3.70;;;1.60;99.90;;;;;;5037603;28;20198;-80
2020/12/12 02:23:45;;;;;;;5.60;3.22;;;1.60;99.90;;;;;;5036772;28;20202;-82
2020/12/12 02:26:10;;;;;;;5.47;3.13;;;1.60;99.90;;;;;;5037935;28;20194;-81
2020/12/12 02:31:09;;;;;;;5.38;3.33;;;1.50;99.90;;;;;;5037725;28;20190;-84
2020/12/12 02:33:35;;;;;;;5.72;3.60;;;1.50;99.90;;;;;;5032210;28;20221;-80
2020/12/12 02:36:00;;;;;;;6.38;3.60;;;1.50;99.90;;;;;;5033509;28;20298;-83
2020/12/12 02:38:26;;;;;;;9.55;3.15;;;1.60;99.90;;;;;;5032813;28;20684;-81
2020/12/12 02:40:52;;;;;;;6.55;3.70;;;1.60;99.90;;;;;;5038763;28;20201;-80
2020/12/12 02:43:18;;;;;;;5.00;3.10;;;1.60;99.90;;;;;;5038918;28;20217;-80
2020/12/12 02:45:45;;;;;;;6.25;3.40;;;1.60;99.90;;;;;;5039367;28;20290;-83
2020/12/12 02:48:11;;;;;;;5.15;3.03;;;1.70;99.90;;;;;;5043436;28;20244;-80
2020/12/12 02:50:37;;;;;;;5.03;3.40;;;1.70;99.90;;;;;;5038200;28;20202;-82
2020/12/12 02:53:05;;;;;;;5.25;3.60;;;1.70;99.90;;;;;;5038229;28;20201;-83
2020/12/12 02:55:31;;;;;;;7.15;3.78;;;1.70;99.90;;;;;;5040032;28;20202;-81
2020/12/12 02:57:56;;;;;;;7.55;4.22;;;1.70;99.90;;;;;;5037464;28;20633;-80
2020/12/12 03:00:24;;;;;;;5.53;3.58;;;1.80;99.90;;;;;;5036598;28;20800;-81
2020/12/12 03:02:50;;;;;;;7.55;3.83;;;1.80;99.90;;;;;;5036605;28;20198;-80
2020/12/12 03:05:16;;;;;;;6.53;3.60;;;1.80;99.90;;;;;;5035733;28;20797;-80
2020/12/12 03:07:42;;;;;;;5.50;3.65;;;1.80;99.90;;;;;;5035032;28;20305;-80
2020/12/12 03:10:08;;;;;;;6.85;3.60;;;1.80;99.90;;;;;;5036217;28;20201;-80
2020/12/12 03:12:38;;;;;;;7.07;3.90;;;1.80;99.90;;;;;;5037593;28;20222;-79
2020/12/12 03:15:10;;;;;;;7.32;4.10;;;1.80;99.90;;;;;;5053025;28;20517;-80
2020/12/12 03:17:36;;;;;;;8.85;4.25;;;1.90;99.90;;;;;;5033058;28;20697;-81
2020/12/12 03:20:04;;;;;;;6.13;3.78;;;1.90;99.90;;;;;;5031424;28;20585;-80
2020/12/12 03:22:30;;;;;;;5.97;3.80;;;1.90;99.90;;;;;;5033390;28;20206;-81
2020/12/12 03:24:56;;;;;;;6.38;4.07;;;1.90;99.90;;;;;;5028172;28;20702;-82
2020/12/12 03:27:23;;;;;;;7.30;3.92;;;1.90;99.90;;;;;;5037400;28;20267;-81
2020/12/12 03:29:49;;;;;;;7.07;4.25;;;1.90;99.90;;;;;;5034662;28;20201;-80
2020/12/12 03:32:14;;;;;;;7.30;3.92;;;1.90;99.90;;;;;;5029706;28;20194;-81
2020/12/12 03:34:44;;;;;;;7.43;3.97;;;2.00;99.90;;;;;;5037545;28;20347;-81
2020/12/12 03:37:10;;;;;;;8.77;4.10;;;1.90;99.90;;;;;;5030558;28;20761;-81
2020/12/12 03:39:36;;;;;;;7.18;4.28;;;2.00;99.90;;;;;;5036034;28;20201;-80
2020/12/12 03:42:02;;;;;;;7.45;3.88;;;2.00;99.90;;;;;;5035051;28;20201;-81
2020/12/12 03:44:28;;;;;;;7.32;4.07;;;2.00;99.90;;;;;;5035622;28;20586;-80
2020/12/12 03:46:53;;;;;;;7.28;3.65;;;2.00;99.90;;;;;;5034775;28;20699;-80
2020/12/12 03:49:19;;;;;;;7.15;3.72;;;2.00;99.90;;;;;;5035641;28;20244;-80
2020/12/12 03:51:45;;;;;;;5.25;3.63;;;2.00;99.90;;;;;;5037193;28;20227;-81
2020/12/12 03:54:10;;;;;;;6.13;3.70;;;2.00;99.90;;;;;;5051111;28;20275;-81
2020/12/12 03:56:36;;;;;;;7.22;3.97;;;2.00;99.90;;;;;;5036373;28;20198;-82
2020/12/12 03:59:02;;;;;;;5.05;3.28;;;2.10;99.90;;;;;;5037603;28;20223;-81
2020/12/12 04:01:28;;;;;;;4.63;3.08;;;2.10;99.90;;;;;;5036483;28;20323;-81
2020/12/12 04:03:54;;;;;;;6.20;3.45;;;2.10;99.90;;;;;;5036806;28;20282;-81
2020/12/12 04:06:21;;;;;;;6.25;3.58;;;2.10;99.90;;;;;;5037735;28;20205;-79
2020/12/12 04:08:48;;;;;;;6.75;3.85;;;2.10;99.90;;;;;;5036466;28;20190;-81
2020/12/12 04:11:14;;;;;;;6.05;3.20;;;2.10;99.90;;;;;;5037450;28;20203;-84
2020/12/12 04:13:40;;;;;;;6.78;3.70;;;2.10;99.90;;;;;;5039704;28;20688;-80
2020/12/12 04:16:05;;;;;;;5.93;3.53;;;2.10;99.90;;;;;;5032729;28;20558;-82
2020/12/12 04:18:31;;;;;;;6.55;3.45;;;2.10;99.90;;;;;;5041044;28;20694;-80
2020/12/12 04:20:57;;;;;;;9.52;3.60;;;2.10;99.90;;;;;;5032620;28;20206;-79
2020/12/12 04:23:22;;;;;;;4.93;3.15;;;2.20;99.90;;;;;;5032848;28;20201;-82
2020/12/12 04:25:48;;;;;;;6.53;3.55;;;2.20;99.90;;;;;;5035019;28;20201;-82
2020/12/12 04:28:14;;;;;;;5.85;3.42;;;2.20;99.90;;;;;;5038711;28;20200;-83
2020/12/12 04:30:39;;;;;;;5.22;3.60;;;2.10;99.90;;;;;;5038367;28;20599;-81
2020/12/12 04:33:05;;;;;;;6.63;3.42;;;2.10;99.90;;;;;;5039128;28;20281;-79
2020/12/12 04:35:31;;;;;;;5.10;3.40;;;2.20;99.90;;;;;;5034482;28;20198;-83
2020/12/12 04:37:56;;;;;;;4.68;3.22;;;2.20;99.90;;;;;;5036274;28;20202;-81
2020/12/12 04:40:22;;;;;;;5.18;3.42;;;2.20;99.90;;;;;;5034876;28;20201;-79
2020/12/12 04:42:48;;;;;;;5.25;3.33;;;2.20;99.90;;;;;;5038112;28;20201;-82
2020/12/12 04:45:20;;;;;;;4.50;2.90;;;2.30;99.90;;;;;;5036926;28;20627;-81
2020/12/12 04:47:49;;;;;;;6.95;2.95;;;2.30;99.90;;;;;;5037106;28;20571;-80
2020/12/12 04:50:17;;;;;;;6.38;3.42;;;2.20;99.90;;;;;;5039223;28;20613;-80
2020/12/12 04:52:42;;;;;;;6.05;3.80;;;2.20;99.90;;;;;;5041664;28;20560;-80
2020/12/12 04:55:09;;;;;;;6.00;3.53;;;2.20;99.90;;;;;;5033968;28;20205;-80
2020/12/12 04:57:36;;;;;;;6.20;3.55;;;2.30;99.90;;;;;;5036035;28;20216;-81
2020/12/12 05:00:13;;;;;;;6.03;3.58;;;2.30;99.90;;;;;;5034417;28;20574;-81
2020/12/12 05:02:39;;;;;;;5.32;3.70;;;2.20;99.90;;;;;;5032185;28;20200;-81
2020/12/12 05:05:07;;;;;;;7.68;4.05;;;2.20;99.90;;;;;;5040786;28;20813;-81
2020/12/12 05:07:33;;;;;;;5.88;3.65;;;2.30;99.90;;;;;;5037890;28;20640;-80
2020/12/12 05:10:03;;;;;;;7.72;3.72;;;2.30;99.90;;;;;;5034820;28;20194;-80
2020/12/12 05:12:29;;;;;;;8.32;3.88;;;2.30;99.90;;;;;;5034650;28;20253;-81
2020/12/12 05:14:54;;;;;;;7.78;4.05;;;2.30;99.90;;;;;;5036262;28;20308;-80
2020/12/12 05:17:20;;;;;;;7.80;4.22;;;2.40;99.90;;;;;;5036869;28;20193;-81
2020/12/12 05:19:50;;;;;;;6.47;4.10;;;2.40;99.90;;;;;;5037987;28;20562;-81
2020/12/12 05:22:16;;;;;;;8.10;4.40;;;2.40;99.90;;;;;;5039385;28;20201;-80
2020/12/12 05:24:42;;;;;;;7.38;4.05;;;2.40;99.90;;;;;;5036558;28;20269;-78
2020/12/12 05:27:08;;;;;;;7.03;3.65;;;2.40;99.90;;;;;;5038175;28;20297;-80
2020/12/12 05:29:34;;;;;;;6.93;3.75;;;2.40;99.90;;;;;;5032509;28;20681;-80
2020/12/12 05:32:00;;;;;;;7.45;4.22;;;2.40;99.90;;;;;;5038041;28;20193;-81
2020/12/12 05:34:27;;;;;;;8.43;4.53;;;2.40;99.90;;;;;;5034044;28;20548;-79
2020/12/12 05:36:53;;;;;;;9.02;4.95;;;2.40;99.90;;;;;;5041288;28;20240;-81
2020/12/12 05:39:19;;;;;;;8.40;4.65;;;2.40;99.90;;;;;;5035652;28;20263;-81
2020/12/12 05:41:46;;;;;;;12.25;4.40;;;2.40;99.90;;;;;;5037032;28;20670;-79
2020/12/12 05:44:13;;;;;;;6.68;4.18;;;2.40;99.90;;;;;;5031504;28;20213;-81
2020/12/12 05:46:39;;;;;;;7.90;4.35;;;2.40;99.90;;;;;;5035771;28;20672;-82
2020/12/12 05:49:05;;;;;;;8.35;4.40;;;2.50;99.90;;;;;;5029750;28;20198;-81
2020/12/12 05:51:32;;;;;;;9.82;4.63;;;2.40;99.90;;;;;;5036365;28;20581;-81
2020/12/12 05:53:59;;;;;;;8.13;4.75;;;2.40;99.90;;;;;;5034203;28;20863;-80
2020/12/12 05:56:26;;;;;;;9.60;4.75;;;2.40;99.90;;;;;;5035079;28;20660;-80
2020/12/12 05:58:54;;;;;;;9.07;4.80;;;2.40;99.90;;;;;;5030549;28;20208;-80
2020/12/12 06:01:21;;;;;;;9.73;4.90;;;2.40;99.90;;;;;;5037504;28;20229;-80
2020/12/12 06:03:51;;;;;;;9.13;4.22;;;2.40;99.90;;;;;;5033738;28;20419;-81
2020/12/12 06:06:23;;;;;;;6.70;4.22;;;2.40;99.90;;;;;;5037196;28;20209;-80
2020/12/12 06:09:01;;;;;;;9.43;4.43;;;2.40;99.90;;;;;;5031947;28;20194;-82
2020/12/12 06:11:30;;;;;;;8.05;4.10;;;2.50;99.90;;;;;;5039031;28;20201;-81
2020/12/12 06:14:02;;;;;;;8.38;4.45;;;2.40;99.90;;;;;;5039875;28;20274;-80
2020/12/12 06:16:30;;;;;;;7.53;4.30;;;2.40;99.90;;;;;;5035018;28;20675;-80
2020/12/12 06:19:16;;;;;;;9.88;4.72;;;2.50;99.90;;;;;;5036714;28;20303;-80
2020/12/12 06:21:46;;;;;;;9.85;5.00;;;2.50;99.90;;;;;;5039095;28;20323;-80
2020/12/12 06:24:17;;;;;;;9.57;4.75;;;2.50;99.90;;;;;;5038090;28;21772;-80
2020/12/12 06:26:57;;;;;;;10.15;4.93;;;2.60;99.90;;;;;;5036033;28;20288;-81
2020/12/12 06:29:26;;;;;;;11.20;4.75;;;2.60;99.90;;;;;;5057224;28;20198;-80
2020/12/12 06:31:52;;;;;;;9.57;4.70;;;2.50;99.90;;;;;;5039051;28;20690;-82
2020/12/12 06:34:42;;;;;;;9.55;5.18;;;2.50;99.90;;;;;;5033755;28;20198;-83
2020/12/12 06:37:32;;;;;;;11.38;5.40;;;2.60;99.90;;;;;;5038368;28;20274;-81
2020/12/12 06:40:00;;;;;;;9.95;4.72;;;2.60;99.90;;;;;;5037006;28;20202;-81
2020/12/12 06:42:31;;;;;;;9.75;5.00;;;2.60;99.90;;;;;;5041987;28;20204;-80
2020/12/12 06:44:58;;;;;;;11.00;5.40;;;2.60;99.90;;;;;;5035247;28;20228;-80
2020/12/12 06:47:38;;;;;;;10.60;5.65;;;2.60;99.90;;;;;;5038441;28;20236;-80
2020/12/12 06:50:09;;;;;;;10.77;5.75;;;2.60;99.90;;;;;;5037724;28;20582;-80
2020/12/12 06:52:35;;;;;;;9.30;4.97;;;2.60;99.90;;;;;;5040519;28;20198;-80
2020/12/12 06:55:05;;;;;;;10.35;5.40;;;2.60;99.90;;;;;;5029870;28;20202;-81
2020/12/12 06:57:37;;;;;;;11.50;5.38;;;2.60;99.90;;;;;;5036346;28;20201;-81
2020/12/12 07:00:08;;;;;;;10.65;5.30;;;2.60;99.90;;;;;;5038272;28;20635;-82
2020/12/12 07:02:34;;;;;;;11.40;5.53;;;2.60;99.90;;;;;;5036899;28;20205;-81
2020/12/12 07:05:20;;;;;;;9.43;4.65;;;2.70;99.90;;;;;;5038559;28;20619;-81
2020/12/12 07:07:49;;;;;;;11.10;5.25;;;2.60;99.90;;;;;;5053406;28;20321;-82
2020/12/12 07:10:15;;;;;;;11.02;5.15;;;2.70;99.90;;;;;;5037966;28;20671;-83
2020/12/12 07:12:41;;;;;;;9.52;5.10;;;2.70;99.90;;;;;;5038931;28;20221;-82
2020/12/12 07:15:07;;;;;;;11.07;5.35;;;2.70;99.90;;;;;;5038113;28;20300;-80
2020/12/12 07:17:34;;;;;;;12.88;5.22;;;2.70;99.90;;;;;;5035529;28;20721;-81
2020/12/12 07:20:00;;;;;;;9.15;4.45;;;2.70;99.90;;;;;;5035975;28;20689;-81
2020/12/12 07:22:30;;;;;;;84.65;31.10;;;2.70;99.90;;;;;;5034656;28;20212;-81
2020/12/12 07:24:57;;;;;;;60.00;23.40;;;2.70;99.90;;;;;;5034671;28;20809;-81
2020/12/12 07:27:23;;;;;;;33.17;17.52;;;2.70;99.90;;;;;;5036293;28;20217;-82
2020/12/12 07:29:49;;;;;;;9.75;5.70;;;2.80;99.90;;;;;;5043104;28;20208;-80
2020/12/12 07:32:15;;;;;;;17.25;8.13;;;2.80;99.90;;;;;;5038869;28;20231;-81
2020/12/12 07:34:41;;;;;;;12.40;6.28;;;2.80;99.90;;;;;;5040647;28;20193;-85
2020/12/12 07:37:08;;;;;;;18.17;10.60;;;2.80;99.90;;;;;;5043103;28;20208;-81
2020/12/12 07:39:42;;;;;;;13.35;6.57;;;2.80;99.90;;;;;;5039348;28;20197;-81
2020/12/12 07:42:11;;;;;;;14.10;7.05;;;2.80;99.90;;;;;;5041250;28;20205;-83
2020/12/12 07:44:42;;;;;;;21.80;11.57;;;2.80;99.90;;;;;;5038493;28;20217;-82
2020/12/12 07:47:10;;;;;;;14.80;6.82;;;2.80;99.90;;;;;;5039173;28;20216;-82
2020/12/12 07:49:37;;;;;;;12.90;6.68;;;2.80;99.90;;;;;;5034867;28;20613;-83
2020/12/12 07:52:10;;;;;;;11.90;5.80;;;2.80;99.90;;;;;;5029511;28;20204;-81
2020/12/12 07:54:40;;;;;;;12.50;6.32;;;2.80;99.90;;;;;;5034959;28;20194;-82
2020/12/12 07:57:10;;;;;;;18.88;11.52;;;2.80;99.90;;;;;;5033300;28;20217;-81
2020/12/12 07:59:36;;;;;;;16.17;9.55;;;2.90;99.90;;;;;;5037574;28;20212;-81
2020/12/12 08:02:04;;;;;;;16.65;9.48;;;2.90;99.90;;;;;;5041819;28;20205;-81
2020/12/12 08:04:30;;;;;;;9.25;5.68;;;2.90;99.90;;;;;;5034554;28;20198;-82
2020/12/12 08:06:56;;;;;;;18.83;11.00;;;2.90;99.90;;;;;;5038912;28;20256;-82
2020/12/12 08:09:24;;;;;;;11.40;5.50;;;2.90;99.90;;;;;;5031831;28;20209;-82
2020/12/12 08:12:01;;;;;;;13.00;6.97;;;2.90;99.90;;;;;;5035690;28;20313;-82
2020/12/12 08:14:34;;;;;;;7.25;4.43;;;2.90;99.90;;;;;;5048237;28;20247;-82
2020/12/12 08:17:01;;;;;;;21.13;12.75;;;2.90;99.90;;;;;;5036434;28;20324;-84
2020/12/12 08:19:28;;;;;;;9.20;5.25;;;2.90;99.90;;;;;;5050011;28;20566;-82
2020/12/12 08:22:23;;;;;;;10.95;6.38;;;2.90;99.90;;;;;;5029573;28;20533;-83
2020/12/12 08:25:28;;;;;;;11.82;7.00;;;2.90;99.90;;;;;;5034816;28;20755;-84
2020/12/12 08:28:34;;;;;;;;;;;;;;;;;;;;;
2020/12/12 08:31:38;;;;;;;15.82;7.97;;;2.90;99.90;;;;;;5030748;28;20200;-86
2020/12/12 08:34:25;;;;;;;9.57;5.78;;;2.90;99.90;;;;;;5028413;28;20289;-82
2020/12/12 08:37:06;;;;;;;10.60;6.13;;;2.90;99.90;;;;;;5030639;28;20201;-82
2020/12/12 08:39:46;;;;;;;13.43;7.38;;;2.90;99.90;;;;;;5034423;28;20206;-83
2020/12/12 08:42:25;;;;;;;9.32;5.55;;;2.90;99.90;;;;;;5030980;28;20203;-82
2020/12/12 08:45:19;;;;;;;11.07;5.55;;;3.00;99.90;;;;;;5047519;28;20646;-86
2020/12/12 08:47:45;;;;;;;8.55;4.80;;;2.90;99.90;;;;;;5029327;28;20621;-83
2020/12/12 08:50:11;;;;;;;10.77;4.95;;;3.00;99.90;;;;;;5028623;28;20339;-84
2020/12/12 08:52:38;;;;;;;7.00;4.35;;;3.00;99.90;;;;;;5027663;28;20253;-83
2020/12/12 08:55:05;;;;;;;12.95;6.80;;;3.00;99.90;;;;;;5031068;28;20202;-82
2020/12/12 08:57:30;;;;;;;11.32;6.10;;;3.00;99.90;;;;;;5033934;28;20209;-82
2020/12/12 09:00:06;;;;;;;15.48;8.88;;;3.00;99.90;;;;;;5032135;28;20193;-82
2020/12/12 09:02:34;;;;;;;15.18;9.20;;;3.10;99.90;;;;;;5032515;28;20198;-84
2020/12/12 09:05:11;;;;;;;13.40;7.82;;;3.10;99.90;;;;;;5035117;28;20205;-83
2020/12/12 09:07:37;;;;;;;9.73;5.22;;;3.10;99.90;;;;;;5030074;28;20684;-83
2020/12/12 09:10:14;;;;;;;10.38;5.10;;;3.10;99.90;;;;;;5033481;28;20226;-83
2020/12/12 09:12:46;;;;;;;9.60;5.55;;;3.00;99.90;;;;;;5037652;28;20233;-82
2020/12/12 09:15:13;;;;;;;12.85;6.82;;;3.10;99.90;;;;;;5037369;28;20327;-83
2020/12/12 09:17:39;;;;;;;9.27;5.25;;;3.00;99.90;;;;;;5039193;28;21507;-82
2020/12/12 09:20:07;;;;;;;10.05;6.00;;;3.10;99.90;;;;;;5035451;28;20201;-81
2020/12/12 09:22:33;;;;;;;12.13;6.63;;;3.10;99.90;;;;;;5040080;28;20247;-82
2020/12/12 09:24:59;;;;;;;29.45;12.35;;;3.20;99.90;;;;;;5037564;28;20313;-82
2020/12/12 09:27:26;;;;;;;49.05;18.73;;;3.20;99.90;;;;;;5036250;28;20542;-83
2020/12/12 09:29:51;;;;;;;25.13;11.80;;;3.10;99.90;;;;;;5028377;28;20205;-83
2020/12/12 09:32:17;;;;;;;18.60;8.35;;;3.10;99.90;;;;;;5035941;28;20668;-82
2020/12/12 09:34:43;;;;;;;19.77;9.05;;;3.00;99.90;;;;;;5033336;28;20557;-82
2020/12/12 09:37:08;;;;;;;21.63;11.73;;;3.10;99.90;;;;;;5041873;28;20258;-84
2020/12/12 09:39:34;;;;;;;15.10;8.25;;;3.10;99.90;;;;;;5035934;28;20197;-82
2020/12/12 09:42:28;;;;;;;13.30;6.35;;;3.10;99.90;;;;;;5036448;28;20490;-82
2020/12/12 09:44:54;;;;;;;13.48;6.75;;;3.10;99.90;;;;;;5007660;28;20722;-84
2020/12/12 09:47:19;;;;;;;19.05;8.68;;;3.10;99.90;;;;;;5031982;28;20210;-82
2020/12/12 09:49:45;;;;;;;13.98;6.70;;;3.10;99.90;;;;;;5039044;28;20197;-82
2020/12/12 09:52:11;;;;;;;26.35;13.07;;;3.20;99.90;;;;;;5034514;28;20197;-81
2020/12/12 09:54:36;;;;;;;22.63;12.05;;;3.20;99.90;;;;;;5040480;28;20194;-82
2020/12/12 09:57:02;;;;;;;11.98;6.45;;;3.20;99.90;;;;;;5036940;28;20224;-82
2020/12/12 09:59:39;;;;;;;15.60;8.75;;;3.20;99.90;;;;;;5032106;28;20211;-81
2020/12/12 10:02:07;;;;;;;13.43;6.63;;;3.20;99.90;;;;;;5031156;28;20231;-81
2020/12/12 10:04:35;;;;;;;13.13;6.85;;;3.20;99.90;;;;;;5035740;28;20205;-83
2020/12/12 10:07:03;;;;;;;10.60;6.10;;;3.20;99.90;;;;;;5034375;28;20216;-82
2020/12/12 10:09:29;;;;;;;10.63;6.13;;;3.20;99.90;;;;;;5033002;28;20253;-82
2020/12/12 10:11:55;;;;;;;8.85;4.90;;;3.20;99.90;;;;;;5038521;28;20227;-83
2020/12/12 10:14:21;;;;;;;10.30;5.03;;;3.20;99.90;;;;;;5050240;28;20703;-82
2020/12/12 10:16:46;;;;;;;8.45;5.05;;;3.20;99.90;;;;;;5041286;28;20694;-81
2020/12/12 10:19:12;;;;;;;12.05;6.35;;;3.20;99.90;;;;;;5051477;28;20645;-85
2020/12/12 10:21:38;;;;;;;12.43;6.47;;;3.20;99.90;;;;;;5038030;28;20208;-82
2020/12/12 10:24:03;;;;;;;137.63;64.30;;;3.30;99.90;;;;;;5042741;28;20675;-82
2020/12/12 10:26:29;;;;;;;27.02;14.40;;;3.30;99.90;;;;;;5042529;28;20603;-83
2020/12/12 10:28:55;;;;;;;26.33;15.45;;;3.30;99.90;;;;;;5035152;28;20571;-82
2020/12/12 10:31:20;;;;;;;14.05;8.25;;;3.30;99.90;;;;;;5038676;28;20564;-83
2020/12/12 10:33:46;;;;;;;14.18;8.10;;;3.30;99.90;;;;;;5050341;28;20193;-83
2020/12/12 10:36:14;;;;;;;13.07;7.75;;;3.30;99.90;;;;;;5042351;28;20738;-81
2020/12/12 10:38:39;;;;;;;11.55;5.45;;;3.30;99.90;;;;;;5041954;28;20673;-80
2020/12/12 10:41:11;;;;;;;10.25;5.40;;;3.30;99.90;;;;;;5043270;28;20487;-82
2020/12/12 10:43:38;;;;;;;13.35;7.80;;;3.30;99.90;;;;;;5033144;28;20280;-82
2020/12/12 10:46:04;;;;;;;26.50;15.18;;;3.30;99.90;;;;;;5038407;28;20201;-82
2020/12/12 10:48:30;;;;;;;17.10;10.07;;;3.40;99.90;;;;;;5041819;28;20620;-83
2020/12/12 10:50:55;;;;;;;16.75;8.38;;;3.30;99.90;;;;;;5057440;28;20215;-82
2020/12/12 10:53:21;;;;;;;11.63;6.47;;;3.30;99.90;;;;;;5040274;28;20197;-81
2020/12/12 10:55:47;;;;;;;28.63;16.42;;;3.40;99.90;;;;;;5038813;28;20189;-82
2020/12/12 10:58:15;;;;;;;32.60;15.68;;;3.30;99.90;;;;;;5039256;28;20295;-80
2020/12/12 11:00:49;;;;;;;24.30;13.70;;;3.40;99.90;;;;;;5032530;28;20573;-81
2020/12/12 11:03:14;;;;;;;32.55;17.75;;;3.40;99.90;;;;;;5038133;28;20283;-82
2020/12/12 11:05:40;;;;;;;22.92;13.05;;;3.40;99.90;;;;;;5054827;28;20201;-80
2020/12/12 11:08:06;;;;;;;16.02;8.85;;;3.40;99.90;;;;;;5042855;28;20833;-81
2020/12/12 11:10:32;;;;;;;13.48;6.75;;;3.30;99.90;;;;;;5038208;28;20197;-80
2020/12/12 11:12:57;;;;;;;9.02;5.40;;;3.40;99.90;;;;;;5032309;28;20241;-82
2020/12/12 11:15:26;;;;;;;8.40;5.32;;;3.40;99.90;;;;;;5040205;28;20764;-81
2020/12/12 11:17:51;;;;;;;6.40;3.88;;;3.40;99.90;;;;;;5035617;28;20222;-81
2020/12/12 11:20:17;;;;;;;8.02;4.57;;;3.40;99.90;;;;;;5025851;28;20303;-81
2020/12/12 11:22:43;;;;;;;6.97;4.57;;;3.40;99.90;;;;;;5032855;28;20543;-81
2020/12/12 11:25:09;;;;;;;9.93;4.63;;;3.40;99.90;;;;;;5033805;28;20356;-80
2020/12/12 11:27:36;;;;;;;8.60;4.03;;;3.40;99.90;;;;;;5032581;28;20206;-81
2020/12/12 11:30:04;;;;;;;8.18;4.72;;;3.40;99.90;;;;;;5032859;28;20442;-82
2020/12/12 11:32:29;;;;;;;5.93;3.63;;;3.50;99.90;;;;;;5033451;28;20190;-81
2020/12/12 11:35:11;;;;;;;6.30;3.60;;;3.40;99.90;;;;;;5040245;28;20702;-81
2020/12/12 11:48:11;;;;;;;7.50;4.53;;;3.50;99.90;;;;;;5030272;28;20237;-82
2020/12/12 11:50:37;;;;;;;4.45;2.88;;;3.50;99.90;;;;;;5038996;28;20399;-81
2020/12/12 11:53:03;;;;;;;7.95;3.50;;;3.50;99.90;;;;;;5033051;28;20196;-81
2020/12/12 11:55:28;;;;;;;5.85;2.92;;;3.50;99.90;;;;;;5033622;28;20764;-81
2020/12/12 11:57:55;;;;;;;5.72;3.05;;;3.50;99.90;;;;;;5036973;28;20216;-81
2020/12/12 12:00:23;;;;;;;5.75;3.60;;;3.40;99.90;;;;;;5035321;28;20198;-82
2020/12/12 12:02:48;;;;;;;5.95;3.90;;;3.40;99.90;;;;;;5034761;28;20190;-83
2020/12/12 12:05:14;;;;;;;6.00;3.97;;;3.40;99.90;;;;;;5032170;28;20202;-83
2020/12/12 12:07:44;;;;;;;6.22;4.05;;;3.40;99.90;;;;;;5032796;28;20205;-83
2020/12/12 12:10:32;;;;;;;12.10;5.53;;;3.40;99.90;;;;;;5051972;28;20194;-84
2020/12/12 12:13:00;;;;;;;7.82;3.80;;;3.50;99.90;;;;;;5039885;28;20287;-82
2020/12/12 12:15:26;;;;;;;8.48;3.92;;;3.50;99.90;;;;;;5034141;28;20225;-80
2020/12/12 12:17:52;;;;;;;7.35;3.50;;;3.40;99.90;;;;;;5036274;28;20288;-83
2020/12/12 12:20:21;;;;;;;6.45;3.85;;;3.50;99.90;;;;;;5033859;28;20210;-82
2020/12/12 12:22:46;;;;;;;5.88;3.67;;;3.50;99.90;;;;;;5036019;28;20590;-83
2020/12/12 12:25:12;;;;;;;4.97;3.13;;;3.50;99.90;;;;;;5034834;28;20209;-83
2020/12/12 12:27:41;;;;;;;6.43;3.97;;;3.40;99.90;;;;;;5037410;28;20213;-81
2020/12/12 12:30:06;;;;;;;8.32;3.85;;;3.50;99.90;;;;;;5042734;28;20198;-81
2020/12/12 12:32:32;;;;;;;8.35;4.47;;;3.40;99.90;;;;;;5039725;28;20209;-78
2020/12/12 12:34:58;;;;;;;15.90;6.47;;;3.50;99.90;;;;;;5014369;28;20194;-78
2020/12/12 12:37:24;;;;;;;9.70;5.20;;;3.50;99.90;;;;;;5035270;28;20296;-79
2020/12/12 12:39:50;;;;;;;5.25;3.33;;;3.50;99.90;;;;;;5038056;28;20201;-78
2020/12/12 12:42:19;;;;;;;5.53;3.53;;;3.50;99.90;;;;;;5036407;28;20208;-80
2020/12/12 12:44:45;;;;;;;6.88;4.15;;;3.50;99.90;;;;;;5047978;28;20213;-78
2020/12/12 12:47:13;;;;;;;5.10;3.40;;;3.40;99.90;;;;;;5033678;28;20251;-80
2020/12/12 12:49:38;;;;;;;6.22;3.80;;;3.40;99.90;;;;;;5034703;28;20644;-79
2020/12/12 12:52:14;;;;;;;5.63;3.50;;;3.40;99.90;;;;;;5029333;28;20203;-81
2020/12/12 12:54:40;;;;;;;6.00;3.92;;;3.50;99.90;;;;;;5051325;28;21468;-79
2020/12/12 12:57:05;;;;;;;5.20;3.47;;;3.50;99.90;;;;;;5037521;28;20198;-81
2020/12/12 12:59:31;;;;;;;11.63;5.80;;;3.50;99.90;;;;;;5034207;28;20392;-79
2020/12/12 13:01:59;;;;;;;7.03;4.65;;;3.50;99.90;;;;;;5036846;28;20194;-79
2020/12/12 13:04:25;;;;;;;6.22;4.00;;;3.50;99.90;;;;;;5040623;28;20204;-79
2020/12/12 13:06:50;;;;;;;6.10;3.60;;;3.50;99.90;;;;;;5040841;28;20205;-80
2020/12/12 13:09:16;;;;;;;6.22;3.95;;;3.50;99.90;;;;;;5036767;28;20205;-78
2020/12/12 13:11:43;;;;;;;7.13;4.10;;;3.40;99.90;;;;;;5039776;28;20659;-79
2020/12/12 13:14:09;;;;;;;7.10;4.28;;;3.40;99.90;;;;;;5049644;28;20717;-82